createdAt,value
2023-01-22T00:00:18.572Z,72.50
2023-01-22T00:02:47.466Z,72.50
2023-01-22T00:05:14.957Z,72.30
2023-01-22T00:07:42.258Z,72.20
2023-01-22T00:10:11.284Z,72.20
2023-01-22T00:12:38.602Z,72.10
2023-01-22T00:15:06.593Z,72.10
2023-01-22T00:17:34.010Z,72.00
2023-01-22T00:20:01.228Z,72.00
2023-01-22T00:22:29.039Z,72.00
2023-01-22T00:24:56.419Z,71.90
2023-01-22T00:27:23.872Z,72.00
2023-01-22T00:29:51.318Z,72.00
2023-01-22T00:32:18.710Z,72.10
2023-01-22T00:34:52.265Z,72.30
2023-01-22T00:37:20.485Z,72.40
2023-01-22T00:39:47.812Z,72.50
2023-01-22T00:42:15.240Z,72.70
2023-01-22T00:44:42.591Z,72.80
2023-01-22T00:47:09.959Z,73.00
2023-01-22T00:49:37.425Z,72.90
2023-01-22T00:52:05.453Z,73.00
2023-01-22T00:54:32.747Z,73.20
2023-01-22T00:57:04.306Z,73.20
2023-01-22T00:59:31.620Z,73.10
2023-01-22T01:01:59.054Z,73.10
2023-01-22T01:04:29.404Z,73.10
2023-01-22T01:06:56.690Z,73.10
2023-01-22T01:09:23.968Z,73.20
2023-01-22T01:11:51.378Z,73.20
2023-01-22T01:14:19.661Z,73.20
2023-01-22T01:16:50.286Z,73.00
2023-01-22T01:19:17.791Z,73.10
2023-01-22T01:21:45.113Z,73.00
2023-01-22T01:24:12.811Z,73.00
2023-01-22T01:26:41.128Z,73.10
2023-01-22T01:29:11.141Z,73.10
2023-01-22T01:31:38.628Z,73.20
2023-01-22T01:34:05.967Z,73.40
2023-01-22T01:36:48.854Z,73.30
2023-01-22T01:39:17.012Z,73.20
2023-01-22T01:41:44.435Z,73.10
2023-01-22T01:44:20.542Z,73.10
2023-01-22T01:47:31.546Z,73.00
2023-01-22T01:49:58.919Z,72.80
2023-01-22T01:52:26.181Z,72.90
2023-01-22T01:54:54.731Z,72.90
2023-01-22T01:57:25.928Z,72.90
2023-01-22T02:01:02.823Z,72.80
2023-01-22T02:03:30.223Z,72.40
2023-01-22T02:05:57.570Z,72.50
2023-01-22T02:08:24.817Z,72.50
2023-01-22T02:10:52.178Z,72.80
2023-01-22T02:13:26.197Z,72.90
2023-01-22T02:15:53.622Z,73.10
2023-01-22T02:18:20.969Z,72.90
2023-01-22T02:21:00.752Z,72.90
2023-01-22T02:23:30.135Z,73.20
2023-01-22T02:25:58.426Z,73.40
2023-01-22T02:28:25.755Z,73.60
2023-01-22T02:30:55.165Z,73.50
2023-01-22T02:33:22.630Z,73.30
2023-01-22T02:35:49.957Z,73.30
2023-01-22T02:38:17.177Z,73.40
2023-01-22T02:40:49.296Z,73.40
2023-01-22T02:43:19.448Z,73.40
2023-01-22T02:45:46.813Z,73.40
2023-01-22T02:48:13.992Z,73.60
2023-01-22T02:50:41.329Z,73.50
2023-01-22T02:53:08.581Z,73.60
2023-01-22T02:55:35.909Z,73.60
2023-01-22T02:58:03.248Z,73.60
2023-01-22T03:00:30.573Z,73.70
2023-01-22T03:02:57.887Z,73.80
2023-01-22T03:05:25.643Z,73.80
2023-01-22T03:07:52.845Z,74.00
2023-01-22T03:10:23.310Z,73.90
2023-01-22T03:13:09.174Z,73.90
2023-01-22T03:15:57.804Z,74.00
2023-01-22T03:18:43.921Z,74.00
2023-01-22T03:21:18.701Z,74.00
2023-01-22T03:23:50.049Z,74.00
2023-01-22T03:26:19.770Z,74.10
2023-01-22T03:28:48.703Z,74.10
2023-01-22T03:31:16.625Z,74.20
2023-01-22T03:33:44.111Z,74.20
2023-01-22T03:36:14.184Z,74.20
2023-01-22T03:38:46.618Z,74.20
2023-01-22T03:41:17.726Z,74.20
2023-01-22T03:43:47.024Z,74.20
2023-01-22T03:46:24.426Z,74.10
2023-01-22T03:48:55.709Z,74.10
2023-01-22T03:51:25.490Z,74.00
2023-01-22T03:53:52.745Z,74.00
2023-01-22T03:56:21.823Z,74.00
2023-01-22T03:58:50.105Z,74.10
2023-01-22T04:01:21.332Z,74.20
2023-01-22T04:03:48.867Z,74.20
2023-01-22T04:06:16.366Z,74.10
2023-01-22T04:08:44.877Z,74.10
2023-01-22T04:11:12.673Z,74.10
2023-01-22T04:13:41.056Z,74.10
2023-01-22T04:16:09.001Z,74.20
2023-01-22T04:18:59.336Z,74.20
2023-01-22T04:21:49.032Z,74.20
2023-01-22T04:24:16.623Z,74.30
2023-01-22T04:26:43.866Z,74.40
2023-01-22T04:29:13.092Z,74.50
2023-01-22T04:31:40.514Z,74.50
2023-01-22T04:34:07.765Z,74.60
2023-01-22T04:36:41.941Z,74.60
2023-01-22T04:39:09.143Z,74.70
2023-01-22T04:41:36.388Z,74.70
2023-01-22T04:44:04.044Z,74.70
2023-01-22T04:46:36.926Z,74.80
2023-01-22T04:49:04.288Z,74.70
2023-01-22T04:51:31.431Z,74.70
2023-01-22T04:53:59.352Z,74.60
2023-01-22T04:56:26.637Z,74.70
2023-01-22T04:58:53.895Z,74.70
2023-01-22T05:01:21.749Z,74.70
2023-01-22T05:03:54.676Z,74.70
2023-01-22T05:06:21.946Z,74.70
2023-01-22T05:08:49.197Z,74.70
2023-01-22T05:11:16.567Z,74.70
2023-01-22T05:13:57.842Z,74.70
2023-01-22T05:16:25.221Z,74.90
2023-01-22T05:18:53.057Z,75.00
2023-01-22T05:21:20.216Z,75.00
2023-01-22T05:23:49.055Z,75.00
2023-01-22T05:26:17.262Z,75.00
2023-01-22T05:28:58.456Z,75.00
2023-01-22T05:31:40.609Z,75.00
2023-01-22T05:34:15.736Z,75.10
2023-01-22T05:36:42.940Z,75.10
2023-01-22T05:39:17.362Z,75.10
2023-01-22T05:41:44.845Z,75.10
2023-01-22T05:44:13.253Z,75.20
2023-01-22T05:46:41.532Z,75.30
2023-01-22T05:49:19.470Z,75.30
2023-01-22T05:51:46.823Z,75.40
2023-01-22T05:54:14.741Z,75.50
2023-01-22T05:56:44.043Z,75.40
2023-01-22T05:59:12.436Z,75.50
2023-01-22T06:01:40.788Z,75.50
2023-01-22T06:04:09.065Z,75.70
2023-01-22T06:06:38.154Z,75.60
2023-01-22T06:09:05.603Z,75.60
2023-01-22T06:11:36.530Z,75.60
2023-01-22T06:14:04.119Z,75.70
2023-01-22T06:16:33.166Z,75.80
2023-01-22T06:19:17.702Z,75.80
2023-01-22T06:21:56.016Z,75.80
2023-01-22T06:24:30.612Z,75.80
2023-01-22T06:26:59.740Z,75.80
2023-01-22T06:29:38.131Z,75.70
2023-01-22T06:32:06.914Z,75.70
2023-01-22T06:34:34.451Z,75.60
2023-01-22T06:37:03.065Z,75.70
2023-01-22T06:39:33.866Z,75.70
2023-01-22T06:42:07.685Z,75.80
2023-01-22T06:44:35.081Z,75.90
2023-01-22T06:47:02.615Z,75.90
2023-01-22T06:49:31.121Z,76.00
2023-01-22T06:52:01.220Z,76.10
2023-01-22T06:54:29.109Z,76.20
2023-01-22T06:56:56.370Z,76.20
2023-01-22T06:59:24.861Z,76.00
2023-01-22T07:01:52.388Z,76.00
2023-01-22T07:04:19.899Z,76.10
2023-01-22T07:06:47.228Z,76.10
2023-01-22T07:09:14.491Z,76.00
2023-01-22T07:11:41.755Z,75.90
2023-01-22T07:14:09.091Z,75.90
2023-01-22T07:16:36.376Z,76.00
2023-01-22T07:19:03.589Z,75.90
2023-01-22T07:21:30.952Z,76.00
2023-01-22T07:23:58.240Z,76.00
2023-01-22T07:26:25.723Z,76.10
2023-01-22T07:28:53.020Z,76.00
2023-01-22T07:31:20.482Z,75.90
2023-01-22T07:33:47.839Z,76.00
2023-01-22T07:36:15.087Z,76.10
2023-01-22T07:38:42.330Z,76.00
2023-01-22T07:41:24.884Z,76.10
2023-01-22T07:43:57.960Z,76.10
2023-01-22T07:46:29.375Z,76.00
2023-01-22T07:48:58.751Z,76.00
2023-01-22T07:51:27.108Z,76.00
2023-01-22T07:53:54.270Z,76.10
2023-01-22T07:56:21.524Z,76.10
2023-01-22T07:58:48.863Z,76.10
2023-01-22T08:01:17.139Z,76.10
2023-01-22T08:03:45.366Z,76.10
2023-01-22T08:06:16.824Z,76.10
2023-01-22T08:08:44.115Z,76.10
2023-01-22T08:11:11.353Z,76.00
2023-01-22T08:13:38.823Z,75.90
2023-01-22T08:16:06.785Z,75.90
2023-01-22T08:18:34.110Z,75.90
2023-01-22T08:21:01.419Z,76.00
2023-01-22T08:23:29.094Z,76.00
2023-01-22T08:26:04.076Z,75.90
2023-01-22T08:28:32.020Z,75.90
2023-01-22T08:31:00.264Z,75.90
2023-01-22T08:33:28.027Z,75.90
2023-01-22T08:35:55.334Z,75.90
2023-01-22T08:38:22.711Z,75.90
2023-01-22T08:40:53.286Z,76.00
2023-01-22T08:43:20.492Z,76.00
2023-01-22T08:45:51.123Z,75.90
2023-01-22T08:48:18.557Z,75.90
2023-01-22T08:50:45.830Z,75.80
2023-01-22T08:53:15.462Z,75.80
2023-01-22T08:55:48.856Z,75.80
2023-01-22T08:58:16.141Z,75.60
2023-01-22T09:00:44.680Z,75.50
2023-01-22T09:03:13.181Z,75.30
2023-01-22T09:05:40.606Z,75.50
2023-01-22T09:08:08.335Z,75.50
2023-01-22T09:10:36.685Z,75.50
2023-01-22T09:13:04.830Z,75.50
2023-01-22T09:15:32.151Z,75.50
2023-01-22T09:18:00.279Z,75.60
2023-01-22T09:20:27.498Z,75.60
2023-01-22T09:22:54.761Z,75.60
2023-01-22T09:25:22.034Z,75.60
2023-01-22T09:27:49.263Z,75.60
2023-01-22T09:30:17.074Z,75.60
2023-01-22T09:32:44.463Z,75.60
2023-01-22T09:35:11.724Z,75.60
2023-01-22T09:37:38.974Z,75.60
2023-01-22T09:40:07.227Z,75.60
2023-01-22T09:42:37.788Z,75.60
2023-01-22T09:45:11.217Z,75.60
2023-01-22T09:47:50.140Z,75.60
2023-01-22T09:50:29.220Z,75.70
2023-01-22T09:52:58.823Z,75.80
2023-01-22T09:55:31.055Z,75.60
2023-01-22T09:58:01.442Z,75.70
2023-01-22T10:00:41.843Z,75.90
2023-01-22T10:03:42.833Z,76.00
2023-01-22T10:06:18.864Z,75.90
2023-01-22T10:09:09.667Z,75.90
2023-01-22T10:11:37.457Z,76.00
2023-01-22T10:14:09.563Z,76.00
2023-01-22T10:16:37.613Z,76.10
2023-01-22T10:19:26.649Z,76.10
2023-01-22T10:22:03.976Z,76.30
2023-01-22T10:24:31.255Z,76.30
2023-01-22T10:26:59.714Z,76.10
2023-01-22T10:29:29.757Z,75.90
2023-01-22T10:32:21.927Z,76.00
2023-01-22T10:35:18.462Z,75.80
2023-01-22T10:37:49.255Z,75.80
2023-01-22T10:40:38.388Z,75.70
2023-01-22T10:43:14.669Z,76.00
2023-01-22T10:45:59.700Z,76.00
2023-01-22T10:48:27.073Z,76.00
2023-01-22T10:51:17.766Z,76.00
2023-01-22T10:53:50.309Z,76.10
2023-01-22T10:56:30.765Z,76.00
2023-01-22T10:58:58.730Z,75.90
2023-01-22T11:01:38.273Z,75.90
2023-01-22T11:04:13.667Z,75.80
2023-01-22T11:06:50.880Z,76.00
2023-01-22T11:09:24.422Z,75.90
2023-01-22T11:12:19.404Z,75.80
2023-01-22T11:14:58.420Z,75.90
2023-01-22T11:17:32.333Z,75.80
2023-01-22T11:20:04.743Z,75.90
2023-01-22T11:22:35.721Z,76.00
2023-01-22T11:25:03.022Z,76.00
2023-01-22T11:27:36.989Z,76.00
2023-01-22T11:30:28.789Z,75.90
2023-01-22T11:33:28.686Z,75.70
2023-01-22T11:35:58.853Z,75.90
2023-01-22T11:38:51.549Z,75.80
2023-01-22T11:41:55.509Z,75.70
2023-01-22T11:44:49.337Z,75.60
2023-01-22T11:48:19.423Z,75.60
2023-01-22T11:51:12.583Z,75.70
2023-01-22T11:54:02.577Z,75.70
2023-01-22T11:57:14.800Z,75.70
2023-01-22T12:00:25.627Z,75.70
2023-01-22T12:02:55.593Z,75.80
2023-01-22T12:06:00.701Z,75.50
2023-01-22T12:08:55.389Z,75.50
2023-01-22T12:11:44.153Z,75.50
2023-01-22T12:14:50.003Z,75.30
2023-01-22T12:17:46.150Z,75.30
2023-01-22T12:21:06.282Z,75.20
2023-01-22T12:23:54.341Z,75.30
2023-01-22T12:26:25.756Z,75.50
2023-01-22T12:29:00.500Z,75.40
2023-01-22T12:31:36.414Z,75.30
2023-01-22T12:34:24.687Z,75.40
2023-01-22T12:36:52.519Z,75.40
2023-01-22T12:39:34.042Z,75.40
2023-01-22T12:42:35.602Z,75.50
2023-01-22T12:45:05.814Z,75.40
2023-01-22T12:48:18.234Z,75.30
2023-01-22T12:50:54.574Z,75.00
2023-01-22T12:53:34.871Z,75.00
2023-01-22T12:56:07.095Z,74.80
2023-01-22T12:58:39.563Z,74.70
2023-01-22T13:01:23.670Z,74.50
2023-01-22T13:04:05.911Z,74.50
2023-01-22T13:06:38.282Z,74.60
2023-01-22T13:09:20.611Z,74.80
2023-01-22T13:11:47.874Z,74.80
2023-01-22T13:14:21.928Z,74.50
2023-01-22T13:16:59.568Z,74.50
2023-01-22T13:19:42.375Z,74.80
2023-01-22T13:22:13.889Z,74.90
2023-01-22T13:24:58.808Z,74.80
2023-01-22T13:27:33.356Z,74.70
2023-01-22T13:30:28.524Z,74.90
2023-01-22T13:33:16.016Z,75.00
2023-01-22T13:35:44.696Z,74.70
2023-01-22T13:38:26.731Z,74.70
2023-01-22T13:41:03.946Z,74.70
2023-01-22T13:43:32.211Z,74.70
2023-01-22T13:45:59.560Z,74.60
2023-01-22T13:48:27.126Z,74.70
2023-01-22T13:51:19.216Z,74.80
2023-01-22T13:53:52.010Z,74.70
2023-01-22T13:56:21.876Z,74.70
2023-01-22T13:58:49.695Z,74.70
2023-01-22T14:01:32.099Z,74.60
2023-01-22T14:04:07.747Z,74.50
2023-01-22T14:06:47.270Z,74.60
2023-01-22T14:09:25.297Z,74.70
2023-01-22T14:11:52.571Z,74.80
2023-01-22T14:14:22.279Z,74.80
2023-01-22T14:16:49.812Z,74.90
2023-01-22T14:19:17.196Z,74.90
2023-01-22T14:21:44.514Z,74.90
2023-01-22T14:24:11.772Z,74.80
2023-01-22T14:26:39.117Z,74.80
2023-01-22T14:29:07.097Z,74.60
2023-01-22T14:31:34.387Z,74.50
2023-01-22T14:34:01.851Z,74.50
2023-01-22T14:36:29.524Z,74.50
2023-01-22T14:38:57.819Z,74.50
2023-01-22T14:41:25.258Z,74.60
2023-01-22T14:43:52.565Z,74.60
2023-01-22T14:46:19.946Z,74.50
2023-01-22T14:48:47.438Z,74.50
2023-01-22T14:51:14.650Z,74.40
2023-01-22T14:53:41.998Z,74.40
2023-01-22T14:56:09.300Z,74.40
2023-01-22T14:58:36.553Z,74.50
2023-01-22T15:01:16.138Z,74.50
2023-01-22T15:03:43.577Z,74.50
2023-01-22T15:06:10.806Z,74.60
2023-01-22T15:08:38.277Z,74.60
2023-01-22T15:11:06.016Z,74.60
2023-01-22T15:13:33.843Z,74.30
2023-01-22T15:16:08.997Z,74.30
2023-01-22T15:18:37.186Z,74.50
2023-01-22T15:21:05.125Z,74.40
2023-01-22T15:23:35.916Z,74.40
2023-01-22T15:26:06.303Z,74.40
2023-01-22T15:28:34.603Z,74.60
2023-01-22T15:31:07.822Z,74.70
2023-01-22T15:33:38.511Z,74.70
2023-01-22T15:36:06.600Z,74.60
2023-01-22T15:38:36.592Z,74.50
2023-01-22T15:41:18.171Z,74.30
2023-01-22T15:43:50.717Z,74.30
2023-01-22T15:46:23.520Z,74.40
2023-01-22T15:48:51.464Z,74.40
2023-01-22T15:51:19.755Z,74.50
2023-01-22T15:53:50.925Z,74.50
2023-01-22T15:56:19.732Z,74.50
2023-01-22T15:58:47.307Z,74.50
2023-01-22T16:01:14.835Z,74.50
2023-01-22T16:03:42.138Z,74.60
2023-01-22T16:06:17.205Z,74.60
2023-01-22T16:08:45.650Z,74.50
2023-01-22T16:11:13.862Z,74.40
2023-01-22T16:13:41.829Z,74.50
2023-01-22T16:16:14.474Z,74.50
2023-01-22T16:18:42.095Z,74.60
2023-01-22T16:21:09.890Z,74.60
2023-01-22T16:23:38.397Z,74.70
2023-01-22T16:26:17.143Z,74.80
2023-01-22T16:28:45.809Z,74.90
2023-01-22T16:31:16.221Z,74.80
2023-01-22T16:33:45.960Z,74.60
2023-01-22T16:36:18.671Z,74.50
2023-01-22T16:38:48.543Z,74.50
2023-01-22T16:41:24.491Z,74.50
2023-01-22T16:44:00.355Z,74.50
2023-01-22T16:46:31.691Z,74.60
2023-01-22T16:49:08.015Z,74.80
2023-01-22T16:51:40.800Z,74.70
2023-01-22T16:54:08.242Z,74.80
2023-01-22T16:56:35.528Z,75.00
2023-01-22T16:59:02.977Z,75.00
2023-01-22T17:01:30.502Z,75.00
2023-01-22T17:03:57.786Z,74.80
2023-01-22T17:06:33.507Z,74.70
2023-01-22T17:09:00.838Z,74.60
2023-01-22T17:11:28.062Z,74.40
2023-01-22T17:13:55.360Z,74.20
2023-01-22T17:16:22.561Z,74.20
2023-01-22T17:18:49.817Z,74.10
2023-01-22T17:21:18.399Z,74.10
2023-01-22T17:23:45.971Z,74.30
2023-01-22T17:26:15.085Z,74.30
2023-01-22T17:28:42.412Z,74.00
2023-01-22T17:31:12.690Z,74.00
2023-01-22T17:33:41.227Z,74.10
2023-01-22T17:36:13.467Z,74.10
2023-01-22T17:38:40.863Z,74.00
2023-01-22T17:41:17.141Z,74.00
2023-01-22T17:43:45.672Z,74.00
2023-01-22T17:46:29.078Z,73.90
2023-01-22T17:48:56.454Z,73.80
2023-01-22T17:51:26.795Z,73.80
2023-01-22T17:53:55.498Z,73.80
2023-01-22T17:56:28.277Z,73.70
2023-01-22T17:58:57.665Z,73.70
2023-01-22T18:01:28.673Z,73.60
2023-01-22T18:03:57.724Z,73.70
2023-01-22T18:06:25.096Z,73.70
2023-01-22T18:08:52.548Z,73.70
2023-01-22T18:11:24.074Z,73.70
2023-01-22T18:13:51.360Z,73.70
2023-01-22T18:16:18.837Z,73.70
2023-01-22T18:18:46.451Z,73.70
2023-01-22T18:21:16.429Z,73.50
2023-01-22T18:23:44.546Z,73.50
2023-01-22T18:26:11.999Z,73.40
2023-01-22T18:28:39.369Z,73.30
2023-01-22T18:31:15.159Z,73.30
2023-01-22T18:33:44.487Z,73.20
2023-01-22T18:36:13.824Z,73.10
2023-01-22T18:38:41.174Z,73.20
2023-01-22T18:41:10.933Z,73.10
2023-01-22T18:43:38.583Z,73.10
2023-01-22T18:46:09.682Z,73.10
2023-01-22T18:48:37.491Z,73.10
2023-01-22T18:51:06.025Z,73.20
2023-01-22T18:53:35.436Z,73.40
2023-01-22T18:56:05.117Z,73.30
2023-01-22T18:58:35.383Z,73.30
2023-01-22T19:01:17.266Z,73.10
2023-01-22T19:03:51.731Z,73.30
2023-01-22T19:06:22.870Z,73.30
2023-01-22T19:09:07.482Z,73.00
2023-01-22T19:11:37.130Z,72.60
2023-01-22T19:14:06.975Z,72.90
2023-01-22T19:16:34.221Z,73.30
2023-01-22T19:19:11.141Z,73.30
2023-01-22T19:21:46.767Z,73.40
2023-01-22T19:24:16.527Z,73.30
2023-01-22T19:26:46.450Z,73.20
2023-01-22T19:29:17.546Z,73.10
2023-01-22T19:31:51.836Z,73.10
2023-01-22T19:34:23.841Z,73.10
2023-01-22T19:36:58.034Z,73.00
2023-01-22T19:39:25.544Z,72.80
2023-01-22T19:41:52.969Z,72.70
2023-01-22T19:44:20.506Z,73.10
2023-01-22T19:46:47.774Z,73.40
2023-01-22T19:49:15.151Z,73.40
2023-01-22T19:51:43.035Z,73.40
2023-01-22T19:54:13.068Z,73.40
2023-01-22T19:56:41.717Z,73.30
2023-01-22T19:59:15.297Z,73.20
2023-01-22T20:01:42.701Z,73.00
2023-01-22T20:04:14.392Z,73.00
2023-01-22T20:06:41.771Z,72.90
2023-01-22T20:09:09.002Z,72.90
2023-01-22T20:11:38.737Z,73.00
2023-01-22T20:14:05.949Z,72.90
2023-01-22T20:16:33.272Z,72.70
2023-01-22T20:19:00.646Z,73.00
2023-01-22T20:21:28.569Z,72.80
2023-01-22T20:23:55.770Z,73.00
2023-01-22T20:26:24.214Z,73.10
2023-01-22T20:28:51.405Z,73.00
2023-01-22T20:31:23.109Z,73.00
2023-01-22T20:33:54.784Z,73.00
2023-01-22T20:36:22.074Z,72.90
2023-01-22T20:38:52.635Z,72.80
2023-01-22T20:41:20.421Z,72.80
2023-01-22T20:43:47.736Z,72.60
2023-01-22T20:46:16.706Z,72.60
2023-01-22T20:48:44.200Z,72.90
2023-01-22T20:51:26.520Z,72.90
2023-01-22T20:53:54.575Z,72.70
2023-01-22T20:56:27.255Z,72.60
2023-01-22T20:58:59.993Z,72.80
2023-01-22T21:01:27.725Z,73.10
2023-01-22T21:03:56.284Z,73.10
2023-01-22T21:06:24.565Z,73.10
2023-01-22T21:08:53.125Z,73.00
2023-01-22T21:11:21.034Z,72.90
2023-01-22T21:13:49.504Z,72.80
2023-01-22T21:16:26.156Z,72.80
2023-01-22T21:19:00.506Z,72.90
2023-01-22T21:21:27.970Z,72.70
2023-01-22T21:23:55.813Z,72.60
2023-01-22T21:26:25.991Z,72.80
2023-01-22T21:29:12.810Z,72.90
2023-01-22T21:31:42.893Z,73.20
2023-01-22T21:34:10.701Z,73.10
2023-01-22T21:36:47.426Z,73.10
2023-01-22T21:39:18.314Z,73.10
2023-01-22T21:41:45.615Z,73.20
2023-01-22T21:44:33.499Z,73.20
2023-01-22T21:47:01.044Z,73.20
2023-01-22T21:49:30.945Z,73.30
2023-01-22T21:52:05.634Z,73.40
2023-01-22T21:54:38.882Z,73.40
2023-01-22T21:57:09.138Z,73.40
2023-01-22T21:59:36.952Z,73.40
2023-01-22T22:02:05.559Z,73.50
2023-01-22T22:04:33.249Z,73.50
2023-01-22T22:07:00.537Z,73.40
2023-01-22T22:09:37.100Z,73.40
2023-01-22T22:12:04.772Z,73.70
2023-01-22T22:14:32.982Z,73.90
2023-01-22T22:17:00.349Z,74.00
2023-01-22T22:19:30.049Z,73.90
2023-01-22T22:21:57.410Z,73.80
2023-01-22T22:24:27.689Z,73.80
2023-01-22T22:26:55.033Z,73.70
2023-01-22T22:29:22.352Z,73.60
2023-01-22T22:31:49.815Z,73.50
2023-01-22T22:34:19.459Z,73.30
2023-01-22T22:36:46.963Z,73.30
2023-01-22T22:39:16.687Z,73.30
2023-01-22T22:41:44.338Z,73.20
2023-01-22T22:44:16.184Z,73.30
2023-01-22T22:46:43.635Z,73.40
2023-01-22T22:49:12.892Z,73.50
2023-01-22T22:51:41.663Z,73.50
2023-01-22T22:54:18.754Z,73.50
2023-01-22T22:56:47.389Z,73.70
2023-01-22T22:59:16.317Z,73.70
2023-01-22T23:01:43.628Z,73.70
2023-01-22T23:04:11.797Z,73.70
2023-01-22T23:06:39.622Z,73.60
2023-01-22T23:09:20.102Z,73.50
2023-01-22T23:11:47.799Z,73.30
2023-01-22T23:14:15.083Z,73.10
2023-01-22T23:16:43.099Z,73.20
2023-01-22T23:19:24.896Z,73.30
2023-01-22T23:22:02.034Z,73.40
2023-01-22T23:24:29.392Z,73.50
2023-01-22T23:26:57.084Z,73.50
2023-01-22T23:29:26.736Z,73.60
2023-01-22T23:31:54.190Z,73.60
2023-01-22T23:34:21.985Z,73.50
2023-01-22T23:36:49.790Z,73.30
2023-01-22T23:39:19.515Z,73.20
2023-01-22T23:41:46.885Z,73.50
2023-01-22T23:44:14.119Z,73.60
2023-01-22T23:46:42.019Z,73.50
2023-01-22T23:49:09.639Z,73.50
2023-01-22T23:51:42.190Z,73.60
2023-01-22T23:54:09.463Z,73.50
2023-01-22T23:56:37.009Z,73.30
2023-01-22T23:59:04.263Z,73.30
